• Join FlightAware (Why Join?)
  • Login
  • US Flag 
10:13PM EDT


 

Airport Tracker/Info


-or-


 

Live Flight TrackerFlight Track Log ✈ N6745M ✈ 24-Aug-2014 ✈ KTCL - KTUL

Flight Track Log - Related Links

Times and Time Zones

All times are in EDT time to prevent confusion due to time zone crossing. See the N6745M flight status page for this flight to view local times or setup timezone preferences in your user account.

Time Position Orientation Groundspeed Altitude Reporting Facility
EDT Latitude Longitude Course Direction KTS MPH feet Rate Location/Type
03:05PM 33.2950 -87.6675 303° West 109 125 2,900  Level Memphis Center
03:07PM 33.3589 -87.7344 319° Northwest 133 153 3,100 60 Climbing Memphis Center
03:07PM 33.3694 -87.7539 303° West 175 201 3,100 1,200 Level Memphis Center
03:08PM 33.3817 -87.7728 308° West 139 160 4,400 1,320 Climbing Memphis Center
03:08PM 33.3864 -87.7811 304° West 93 107 4,500 660 Climbing Memphis Center
03:09PM 33.3989 -87.8011 307° West 117 135 5,100 660 Climbing Memphis Center
03:09PM 33.4053 -87.8108 308° West 108 124 5,200 660 Climbing Memphis Center
03:10PM 33.3660 -87.7364 304° West  Level FlightAware Approximate
03:10PM 33.4153 -87.8308 301° West 110 127 5,800  Level Memphis Center
03:10PM 33.4200 -87.8433 294° West 107 123 6,000 240 Climbing Memphis Center
03:11PM 33.4015 -87.7862 303° West  Level FlightAware Approximate
03:11PM 33.4303 -87.8661 298° West 114 131 6,100  Level Memphis Center
03:11PM 33.4306 -87.8881 271° West 164 189 6,100  Level Memphis Center
03:12PM 33.4333 -87.9261 275° West 157 181 6,100  Level Memphis Center
03:12PM 33.4350 -87.9478 275° West 192 221 6,100  Level Memphis Center
03:13PM 33.4417 -87.9992 279° West 179 206 6,100  Level Memphis Center
03:13PM 33.4417 -88.0100 270° West 189 217 6,100 780 Level Memphis Center
03:14PM 33.4439 -88.0672 273° West 152 175 7,100 960 Climbing Memphis Center
03:15PM 33.4489 -88.1050 279° West 153 176 8,000 480 Climbing Memphis Center
03:16PM 33.4558 -88.1519 280° West 145 167 8,100  Climbing Memphis Center
03:17PM 33.4608 -88.2239 275° West 193 222 8,100  Level Memphis Center
03:19PM 33.4736 -88.3533 276° West 191 220 8,100  Level Memphis Center
03:20PM 33.4789 -88.4181 276° West 189 217 8,100  Level Memphis Center
03:21PM 33.4839 -88.4881 275° West 198 228 8,100  Level Memphis Center
03:22PM 33.4986 -88.5553 285° West 193 222 8,100  Level Memphis Center
03:23PM 33.5236 -88.6075 300° West 188 216 8,100  Level Memphis Center
03:24PM 33.5464 -88.6650 295° West 187 215 8,100  Level Memphis Center
03:25PM 33.5692 -88.7197 297° West 189 217 8,100  Level Memphis Center
03:26PM 33.5878 -88.7797 290° West 192 221 8,100  Level Memphis Center
03:27PM 33.6106 -88.8422 294° West 190 219 8,100  Level Memphis Center
03:29PM 33.6439 -88.8972 306° West 189 217 8,100  Level Memphis Center
03:30PM 33.6758 -88.9506 306° West 189 217 8,100  Level Memphis Center
03:31PM 33.7053 -89.0017 305° West 189 217 8,100  Level Memphis Center
03:33PM 33.7739 -89.0922 312° West 186 214 8,100 240 Level Memphis Center
03:34PM 33.8164 -89.1425 316° Northwest 184 212 8,900 600 Climbing Memphis Center
03:35PM 33.8403 -89.1703 316° Northwest 151 174 9,400 480 Climbing Memphis Center
03:36PM 33.8778 -89.2089 319° Northwest 146 168 10,000 300 Climbing Memphis Center
03:37PM 33.9114 -89.2403 322° Northwest 148 170 10,100  Climbing Memphis Center
03:38PM 33.9503 -89.2744 324° Northwest 164 189 10,100  Level Memphis Center
03:39PM 33.9903 -89.3106 323° Northwest 175 201 10,100  Level Memphis Center
03:40PM 34.0269 -89.3525 317° Northwest 176 203 10,100  Level Memphis Center
03:41PM 34.0639 -89.3939 317° Northwest 181 208 10,100  Level Memphis Center
03:42PM 34.1006 -89.4506 308° West 179 206 10,100 -60 Level Memphis Center
03:43PM 34.1350 -89.4961 312° West 180 207 10,000  Descending Memphis Center
03:44PM 34.1581 -89.5500 297° West 180 207 10,100  Climbing Memphis Center
03:45PM 34.1750 -89.6075 290° West 180 207 10,100  Level Memphis Center
03:46PM 34.1942 -89.6644 292° West 180 207 10,100  Level Memphis Center
03:47PM 34.2131 -89.7242 291° West 183 211 10,100  Level Memphis Center
03:49PM 34.2519 -89.8553 290° West 185 213 10,100  Level Memphis Center
03:50PM 34.2764 -89.9056 300° West 186 214 10,200  Climbing Memphis Center
03:51PM 34.3078 -89.9553 307° West 184 212 10,100 -60 Descending Memphis Center
03:52PM 34.3300 -90.0119 295° West 184 212 10,100  Level Memphis Center
03:54PM 34.3681 -90.1444 291° West 190 219 10,100  Level Memphis Center
03:55PM 34.3689 -90.1336 291° West  Level FlightAware Approximate
03:56PM 34.3778 -90.2072 281° West 190 219 10,100  Level Memphis Center
03:57PM 34.3950 -90.2669 289° West 190 219 10,100  Level Memphis Center
03:58PM 34.4131 -90.3258 290° West 189 217 10,100  Level Memphis Center
03:59PM 34.4367 -90.3844 296° West 190 219 10,100  Level Memphis Center
04:00PM 34.4647 -90.4386 302° West 191 220 10,100  Level Memphis Center
04:01PM 34.4961 -90.5067 299° West 191 220 10,100  Level Memphis Center
04:02PM 34.5158 -90.5672 292° West 191 220 10,100  Level Memphis Center
04:03PM 34.5300 -90.6308 285° West 192 221 10,100  Level Memphis Center
04:04PM 34.5458 -90.6944 287° West 194 223 10,100  Level Memphis Center
04:06PM 34.5908 -90.8136 295° West 194 223 10,100  Level Memphis Center
04:08PM 34.6417 -90.9381 296° West 190 219 10,100  Level Memphis Center
04:09PM 34.6636 -90.9956 295° West 190 219 10,100  Level Memphis Center
04:10PM 34.6858 -91.0519 296° West 190 219 10,100 -60 Level Memphis Center
04:11PM 34.7072 -91.1133 293° West 190 219 10,000 -300 Descending Memphis Center
04:12PM 34.7178 -91.1828 280° West 203 234 9,600 -540 Descending Memphis Center
04:13PM 34.7472 -91.2578 296° West 202 232 8,900 -660 Descending Memphis Center
04:15PM 34.7925 -91.3953 292° West 214 246 7,600 -660 Descending Memphis Center
04:16PM 34.8153 -91.4636 292° West 215 247 6,900 -660 Descending Memphis Center
04:17PM 34.8408 -91.5297 295° West 215 247 6,300 -480 Descending Memphis Center
04:18PM 34.8614 -91.6122 287° West 200 230 6,000 -180 Descending Memphis Center
04:19PM 34.8786 -91.6644 292° West 190 219 6,000  Level Memphis Center
04:20PM 34.9025 -91.7286 294° West 186 214 6,100  Climbing Memphis Center
04:22PM 34.9483 -91.8422 296° West 188 216 6,000 -60 Descending Memphis Center
04:23PM 34.9725 -91.8989 298° West 188 216 6,000  Level Memphis Center
04:24PM 34.9944 -91.9508 297° West 186 214 6,000  Level Memphis Center
04:25PM 34.9969 -91.9547 308° West 188 216 6,000  Level Memphis Center
04:25PM 35.0219 -92.0075 300° West 185 213 6,000 60 Level Memphis Center
04:26PM 35.0258 -92.0203 290° West 187 215 6,100  Climbing Memphis Center
04:26PM 35.0350 -92.0675 283° West 189 217 6,000 -120 Descending Memphis Center
04:27PM 35.0419 -92.0800 304° West 186 214 6,000 60 Level Memphis Center
04:27PM 35.0503 -92.1300 282° West 184 212 6,100 60 Climbing Memphis Center
04:28PM 35.0542 -92.1411 293° West 186 214 6,100 -120 Level Memphis Center
04:28PM 35.0653 -92.1875 286° West 184 212 6,000  Descending Memphis Center
04:29PM 35.0806 -92.2475 287° West 184 212 6,100  Climbing Memphis Center
04:30PM 35.0842 -92.2606 289° West 186 214 6,000 -120 Descending Memphis Center
04:31PM 35.1036 -92.3314 289° West 185 213 6,000  Level Memphis Center
04:32PM 35.1222 -92.3897 291° West 185 213 6,000  Level Memphis Center
04:33PM 35.1414 -92.4469 292° West 185 213 6,000  Level Memphis Center
04:34PM 35.1594 -92.5022 292° West 183 211 6,000  Level Memphis Center
04:35PM 35.1783 -92.5592 292° West 183 211 6,000  Level Memphis Center
04:36PM 35.1964 -92.6150 292° West 182 209 6,000  Level Memphis Center
04:37PM 35.2181 -92.6828 291° West 181 208 6,000  Level Memphis Center
04:38PM 35.2364 -92.7394 292° West 181 208 6,100  Climbing Memphis Center
04:39PM 35.2553 -92.7969 292° West 181 208 6,000  Descending Memphis Center
04:40PM 35.2736 -92.8547 291° West 181 208 6,100  Climbing Memphis Center
04:41PM 35.2922 -92.9106 292° West 181 208 6,000 -60 Descending Memphis Center
04:42PM 35.3103 -92.9681 291° West 181 208 6,000  Level Memphis Center
04:43PM 35.3297 -93.0250 293° West 181 208 6,100  Climbing Memphis Center
04:44PM 35.3483 -93.0833 291° West 181 208 6,100 -60 Level Memphis Center
04:45PM 35.3697 -93.1508 291° West 180 207 6,000  Descending Memphis Center
04:47PM 35.4136 -93.2608 296° West 180 207 6,100  Climbing Memphis Center
04:48PM 35.4267 -93.3203 285° West 180 207 6,100  Level Memphis Center
04:49PM 35.4397 -93.3783 285° West 180 207 6,100  Level Memphis Center
04:50PM 35.4581 -93.4342 292° West 180 207 6,100  Level Memphis Center
04:51PM 35.4769 -93.4922 292° West 180 207 6,100  Level Memphis Center
04:54PM 35.5222 -93.6406 291° West 179 206 6,100  Level Kansas City Center
04:55PM 35.5322 -93.6742 290° West 179 206 6,100  Level Memphis Center
04:56PM 35.5603 -93.7653 291° West 179 206 6,100  Level Kansas City Center
04:57PM 35.5667 -93.7883 289° West 179 206 6,100  Level Memphis Center
04:58PM 35.5892 -93.8581 292° West 179 206 6,100  Level Memphis Center
04:59PM 35.6075 -93.9167 291° West 180 207 6,100  Level Memphis Center
05:00PM 35.6275 -93.9742 293° West 180 207 6,100  Level Memphis Center
05:01PM 35.6456 -94.0331 291° West 180 207 6,100  Level Memphis Center
05:02PM 35.6636 -94.0928 290° West 181 208 6,100  Level Memphis Center
05:04PM 35.7053 -94.2206 292° West 182 209 6,100  Level Memphis Center
05:05PM 35.7222 -94.2789 290° West 181 208 6,100  Level Memphis Center
05:06PM 35.7394 -94.3361 290° West 181 208 6,100  Level Memphis Center
05:07PM 35.7575 -94.3942 291° West 181 208 6,100  Level Memphis Center
05:08PM 35.7756 -94.4531 291° West 181 208 6,100  Level Memphis Center
05:09PM 35.7925 -94.5114 290° West 181 208 6,100  Level Memphis Center
05:10PM 35.8100 -94.5692 290° West 181 208 6,100  Level Memphis Center
05:11PM 35.8314 -94.6394 291° West 181 208 6,100  Level Memphis Center
05:12PM 35.8497 -94.6975 291° West 181 208 6,100  Level Memphis Center
05:13PM 35.8664 -94.7561 289° West 181 208 6,100  Level Memphis Center
05:14PM 35.8844 -94.8144 291° West 181 208 6,100 -60 Level Memphis Center
05:16PM 35.9108 -94.9069 289° West 181 208 6,000  Descending Kansas City Center
05:16PM 35.9194 -94.9317 293° West 181 208 6,100 60 Climbing Memphis Center
05:17PM 35.9400 -95.0008 290° West 181 208 6,100 -120 Level Memphis Center
05:18PM 35.9578 -95.0597 290° West 181 208 5,900 -60 Descending Memphis Center
05:19PM 35.9753 -95.1206 290° West 182 209 6,000  Climbing Memphis Center
05:20PM 35.9928 -95.1800 290° West 182 209 6,000  Level Memphis Center
05:21PM 36.0111 -95.2403 291° West 183 211 6,000  Level Memphis Center
05:23PM 36.0342 -95.3211 289° West 190 219 6,100  Climbing Kansas City Center
05:23PM 36.0372 -95.3389 282° West 187 215 6,000  Descending Kansas City Center
05:24PM 36.0500 -95.3808 291° West 186 214 6,100  Climbing Kansas City Center
05:24PM 36.0553 -95.3983 290° West 186 214 6,000  Descending Kansas City Center
05:25PM 36.0681 -95.4406 291° West 185 213 6,100 -120 Climbing Kansas City Center
05:25PM 36.0731 -95.4589 289° West 186 214 5,900 -540 Descending Kansas City Center
05:26PM 36.0881 -95.5000 294° West 189 217 5,600 -600 Descending Kansas City Center
05:26PM 36.0922 -95.5219 283° West 188 216 5,300 -660 Descending Kansas City Center
05:27PM 36.1036 -95.5572 292° West 194 223 5,000 -720 Descending Kansas City Center
05:27PM 36.1100 -95.5853 286° West 190 219 4,600 -600 Descending Kansas City Center
05:28PM 36.1236 -95.6192 296° West 198 228 4,400 -600 Descending Kansas City Center
05:28PM 36.1325 -95.6481 291° West 193 222 4,000 -600 Descending Kansas City Center
05:29PM 36.1483 -95.6858 297° West 194 223 3,800 -600 Descending Kansas City Center
05:30PM 36.1625 -95.7511 285° West 198 228 3,200 -660 Descending Kansas City Center
05:30PM 36.1733 -95.7881 290° West 195 224 2,800 -480 Descending Kansas City Center
05:31PM 36.2003 -95.8006 339° North 205 236 2,700 -360 Descending Kansas City Center
05:31PM 36.2333 -95.8169 338° Northwest 183 211 2,400 -300 Descending Kansas City Center
05:33PM 36.2483 -95.8719 289° West 133 153 2,200 -420 Descending Kansas City Center
05:33PM 36.2486 -95.9006 271° West 142 163 1,700 -660 Descending Kansas City Center
05:34PM 36.2197 -95.9003 180° South 123 142 1,000 -720 Descending Kansas City Center